Time,TemperatureF,DewpointF,PressureIn,WindDirection,WindDirectionDegrees,WindSpeedMPH,WindSpeedGustMPH,Humidity,HourlyPrecipIn,Conditions,Clouds,dailyrainin,SoftwareType,DateUTC
2013-03-20 00:03:00,31.0,19.0,-100.00,ENE,59,3.0,24.0,60,-99.99,,,-99.99,,2013-03-20 04:03:00,
2013-03-20 00:12:00,31.0,19.0,-100.00,ENE,60,3.0,24.0,60,-99.99,,,-99.99,,2013-03-20 04:12:00,
2013-03-20 00:23:00,31.0,19.0,-100.00,NE,55,4.0,24.0,60,-99.99,,,-99.99,,2013-03-20 04:23:00,
2013-03-20 00:32:00,32.0,19.0,-100.00,ENE,66,4.0,24.0,59,-99.99,,,-99.99,,2013-03-20 04:32:00,
2013-03-20 00:43:00,32.0,19.0,-100.00,ENE,72,4.0,24.0,58,-99.99,,,-99.99,,2013-03-20 04:43:00,
2013-03-20 00:52:00,31.0,19.0,-100.00,NE,50,3.0,24.0,59,-99.99,,,-99.99,,2013-03-20 04:52:00,
2013-03-20 01:03:00,32.0,19.0,-100.00,NE,56,5.0,24.0,58,-99.99,,,-99.99,,2013-03-20 05:03:00,
2013-03-20 01:13:00,31.0,19.0,-100.00,NE,40,4.0,24.0,58,-99.99,,,-99.99,,2013-03-20 05:13:00,
2013-03-20 01:23:00,31.0,19.0,-100.00,NE,36,4.0,24.0,58,-99.99,,,-99.99,,2013-03-20 05:23:00,
2013-03-20 01:32:00,31.0,19.0,-100.00,NNE,29,4.0,24.0,58,-99.99,,,-99.99,,2013-03-20 05:32:00,
2013-03-20 01:42:00,31.0,19.0,-100.00,NNE,26,4.0,24.0,58,-99.99,,,-99.99,,2013-03-20 05:42:00,
2013-03-20 01:52:00,31.0,19.0,-100.00,ENE,69,3.0,24.0,58,-99.99,,,-99.99,,2013-03-20 05:52:00,
2013-03-20 02:03:00,32.0,19.0,-100.00,NE,48,4.0,24.0,58,-99.99,,,-99.99,,2013-03-20 06:03:00,
2013-03-20 02:13:00,32.0,19.0,-100.00,ENE,72,4.0,24.0,56,-99.99,,,-99.99,,2013-03-20 06:13:00,
2013-03-20 02:22:00,31.0,18.0,-100.00,ENE,66,5.0,24.0,55,0.00,,,-99.99,,2013-03-20 06:22:00,
2013-03-20 02:32:00,31.0,18.0,-100.00,NE,46,4.0,24.0,56,-99.99,,,-99.99,,2013-03-20 06:32:00,
2013-03-20 02:43:00,31.0,18.0,-100.00,ENE,60,4.0,24.0,56,-99.99,,,-99.99,,2013-03-20 06:43:00,
2013-03-20 02:52:00,31.0,19.0,-100.00,NE,45,2.0,24.0,58,-99.99,,,-99.99,,2013-03-20 06:52:00,
2013-03-20 03:02:00,32.0,21.0,-100.00,NNE,32,1.0,24.0,62,-99.99,,,-99.99,,2013-03-20 07:02:00,
2013-03-20 03:12:00,32.0,21.0,-100.00,NNE,33,1.0,24.0,64,-99.99,,,-99.99,,2013-03-20 07:12:00,
2013-03-20 03:22:00,30.0,19.0,-100.00,NE,50,2.0,24.0,60,-99.99,,,-99.99,,2013-03-20 07:22:00,
2013-03-20 03:32:00,29.0,19.0,-100.00,East,86,1.0,24.0,63,-99.99,,,-99.99,,2013-03-20 07:32:00,
2013-03-20 03:42:00,29.0,19.0,-100.00,East,86,1.0,1.0,63,-99.99,,,-99.99,,2013-03-20 07:42:00,
2013-03-20 03:52:00,29.0,19.0,-100.00,NE,39,1.0,1.0,66,-99.99,,,-99.99,,2013-03-20 07:52:00,
2013-03-20 04:02:00,29.0,19.0,-100.00,NNE,32,1.0,1.0,66,-99.99,,,-99.99,,2013-03-20 08:02:00,
2013-03-20 04:13:00,29.0,19.0,-100.00,NNE,32,1.0,1.0,66,-99.99,,,-99.99,,2013-03-20 08:13:00,
2013-03-20 04:22:00,28.0,19.0,-100.00,NNE,33,1.0,1.0,67,-99.99,,,-99.99,,2013-03-20 08:22:00,
2013-03-20 04:32:00,28.0,19.0,-100.00,NE,42,1.0,1.0,66,-99.99,,,-99.99,,2013-03-20 08:32:00,
2013-03-20 04:42:00,28.0,19.0,-100.00,NNE,21,1.0,1.0,68,-99.99,,,-99.99,,2013-03-20 08:42:00,
2013-03-20 04:52:00,28.0,19.0,-100.00,NW,309,0.0,1.0,68,-99.99,,,-99.99,,2013-03-20 08:52:00,
2013-03-20 05:02:00,26.0,19.0,-100.00,NE,49,0.0,1.0,71,-99.99,,,-99.99,,2013-03-20 09:02:00,
2013-03-20 05:12:00,26.0,19.0,-100.00,South,184,0.0,1.0,72,-99.99,,,-99.99,,2013-03-20 09:12:00,
2013-03-20 05:22:00,26.0,19.0,-100.00,North,4,0.0,1.0,73,-99.99,,,-99.99,,2013-03-20 09:22:00,
2013-03-20 05:33:00,28.0,19.0,-100.00,North,5,1.0,1.0,69,0.00,,,-99.99,,2013-03-20 09:33:00,
2013-03-20 05:43:00,28.0,19.0,-100.00,North,8,1.0,1.0,68,0.00,,,-99.99,,2013-03-20 09:43:00,
2013-03-20 05:52:00,29.0,19.0,-100.00,ENE,64,2.0,2.0,63,-99.99,,,-99.99,,2013-03-20 09:52:00,
2013-03-20 06:03:00,29.0,18.0,-100.00,ENE,77,2.0,4.0,62,-99.99,,,-99.99,,2013-03-20 10:03:00,
2013-03-20 06:13:00,29.0,19.0,-100.00,NE,56,2.0,4.0,62,-99.99,,,-99.99,,2013-03-20 10:13:00,
2013-03-20 06:23:00,29.0,19.0,-100.00,NE,56,2.0,4.0,62,-99.99,,,-99.99,,2013-03-20 10:23:00,
2013-03-20 06:33:00,29.0,18.0,-100.00,NE,40,2.0,4.0,62,-99.99,,,-99.99,,2013-03-20 10:33:00,
2013-03-20 06:43:00,29.0,18.0,-100.00,NE,35,3.0,4.0,60,-99.99,,,-99.99,,2013-03-20 10:43:00,
2013-03-20 06:52:00,31.0,21.0,-100.00,ENE,59,3.0,6.0,63,-99.99,,,-99.99,,2013-03-20 10:52:00,
2013-03-20 07:03:00,29.0,19.0,-100.00,NE,53,3.0,6.0,62,-99.99,,,-99.99,,2013-03-20 11:03:00,
2013-03-20 07:12:00,28.0,18.0,-100.00,North,8,2.0,6.0,60,-99.99,,,-99.99,,2013-03-20 11:12:00,
2013-03-20 07:22:00,28.0,19.0,-100.00,ENE,59,1.0,6.0,66,-99.99,,,-99.99,,2013-03-20 11:22:00,
2013-03-20 07:32:00,28.0,18.0,-100.00,NNE,32,2.0,6.0,63,-99.99,,,-99.99,,2013-03-20 11:32:00,
2013-03-20 07:42:00,28.0,18.0,-100.00,NE,45,2.0,6.0,63,-99.99,,,-99.99,,2013-03-20 11:42:00,
2013-03-20 07:52:00,31.0,21.0,-100.00,ENE,72,1.0,6.0,66,-99.99,,,-99.99,,2013-03-20 11:52:00,
2013-03-20 08:02:00,28.0,19.0,-100.00,NE,53,0.0,6.0,67,-99.99,,,-99.99,,2013-03-20 12:02:00,
2013-03-20 08:13:00,28.0,19.0,-100.00,ENE,67,1.0,6.0,67,-99.99,,,-99.99,,2013-03-20 12:13:00,
2013-03-20 08:22:00,28.0,19.0,-100.00,NNE,32,2.0,6.0,66,-99.99,,,-99.99,,2013-03-20 12:22:00,
2013-03-20 08:32:00,28.0,19.0,-100.00,ENE,59,1.0,6.0,66,-99.99,,,-99.99,,2013-03-20 12:32:00,
2013-03-20 08:42:00,28.0,19.0,-100.00,ENE,76,0.0,6.0,66,-99.99,,,-99.99,,2013-03-20 12:42:00,
2013-03-20 08:52:00,28.0,19.0,-100.00,NE,48,1.0,6.0,64,0.00,,,-99.99,,2013-03-20 12:52:00,
2013-03-20 09:03:00,29.0,18.0,-100.00,NE,48,1.0,6.0,60,-99.99,,,-99.99,,2013-03-20 13:03:00,
2013-03-20 09:12:00,30.0,18.0,-100.00,NE,50,2.0,6.0,58,-99.99,,,-99.99,,2013-03-20 13:12:00,
2013-03-20 09:22:00,32.0,19.0,-100.00,ENE,73,2.0,6.0,56,-99.99,,,-99.99,,2013-03-20 13:22:00,
2013-03-20 09:32:00,31.0,18.0,-100.00,East,96,3.0,6.0,54,-99.99,,,-99.99,,2013-03-20 13:32:00,
2013-03-20 09:42:00,32.0,16.0,-100.00,East,81,6.0,8.0,51,-99.99,,,-99.99,,2013-03-20 13:42:00,
2013-03-20 09:52:00,32.0,16.0,-100.00,ESE,107,6.0,8.0,50,-99.99,,,-99.99,,2013-03-20 13:52:00,
2013-03-20 10:03:00,32.0,16.0,-100.00,ENE,66,10.0,15.0,47,-99.99,,,-99.99,,2013-03-20 14:03:00,
2013-03-20 10:12:00,32.0,16.0,-100.00,NE,56,9.0,15.0,47,-99.99,,,-99.99,,2013-03-20 14:12:00,
2013-03-20 10:23:00,33.0,14.0,-100.00,ENE,62,6.0,15.0,45,-99.99,,,-99.99,,2013-03-20 14:23:00,
2013-03-20 10:34:00,33.0,14.0,-100.00,NE,35,7.0,15.0,44,-99.99,,,-99.99,,2013-03-20 14:34:00,
2013-03-20 10:42:00,34.0,14.0,-100.00,NE,42,6.0,15.0,42,-99.99,,,-99.99,,2013-03-20 14:42:00,
2013-03-20 10:52:00,33.0,16.0,-100.00,NNE,31,6.0,15.0,45,-99.99,,,-99.99,,2013-03-20 14:52:00,
2013-03-20 11:03:00,34.0,16.0,-100.00,NE,39,7.0,15.0,44,-99.99,,,-99.99,,2013-03-20 15:03:00,
2013-03-20 11:12:00,34.0,14.0,-100.00,NE,42,9.0,15.0,42,-99.99,,,-99.99,,2013-03-20 15:12:00,
2013-03-20 11:22:00,34.0,16.0,-100.00,NE,35,9.0,15.0,44,-99.99,,,-99.99,,2013-03-20 15:22:00,
2013-03-20 11:33:00,35.0,18.0,-100.00,ENE,57,9.0,15.0,46,-99.99,,,-99.99,,2013-03-20 15:33:00,
2013-03-20 11:43:00,35.0,18.0,-100.00,ENE,76,11.0,15.0,46,-99.99,,,-99.99,,2013-03-20 15:43:00,
2013-03-20 11:52:00,35.0,18.0,-100.00,North,2,7.0,15.0,45,0.00,,,-99.99,,2013-03-20 15:52:00,
2013-03-20 12:03:00,35.0,18.0,-100.00,North,2,6.0,15.0,45,0.00,,,-99.99,,2013-03-20 16:03:00,
2013-03-20 12:13:00,35.0,18.0,-100.00,East,93,7.0,15.0,47,-99.99,,,-99.99,,2013-03-20 16:13:00,
2013-03-20 12:23:00,34.0,18.0,-100.00,NE,50,9.0,15.0,47,-99.99,,,-99.99,,2013-03-20 16:23:00,
2013-03-20 12:33:00,35.0,18.0,-100.00,ENE,63,10.0,15.0,47,-99.99,,,-99.99,,2013-03-20 16:33:00,
2013-03-20 12:43:00,35.0,18.0,-100.00,NE,49,10.0,15.0,47,-99.99,,,-99.99,,2013-03-20 16:43:00,
2013-03-20 12:52:00,35.0,18.0,-100.00,NE,49,10.0,15.0,47,-99.99,,,-99.99,,2013-03-20 16:52:00,
2013-03-20 13:03:00,36.0,18.0,-100.00,East,101,9.0,15.0,46,-99.99,,,-99.99,,2013-03-20 17:03:00,
2013-03-20 13:12:00,36.0,18.0,-100.00,NE,39,9.0,15.0,45,-99.99,,,-99.99,,2013-03-20 17:12:00,
2013-03-20 13:22:00,38.0,19.0,-100.00,NE,40,12.0,15.0,46,-99.99,,,-99.99,,2013-03-20 17:22:00,
2013-03-20 13:32:00,38.0,21.0,-100.00,East,83,12.0,19.0,47,-99.99,,,-99.99,,2013-03-20 17:32:00,
2013-03-20 13:42:00,36.0,18.0,-100.00,ENE,76,8.0,19.0,46,-99.99,,,-99.99,,2013-03-20 17:42:00,
2013-03-20 13:52:00,36.0,18.0,-100.00,ENE,77,9.0,19.0,45,-99.99,,,-99.99,,2013-03-20 17:52:00,
2013-03-20 14:02:00,39.0,19.0,-100.00,NE,52,10.0,19.0,44,-99.99,,,-99.99,,2013-03-20 18:02:00,
2013-03-20 14:12:00,36.0,18.0,-100.00,NE,55,10.0,19.0,44,-99.99,,,-99.99,,2013-03-20 18:12:00,
2013-03-20 14:22:00,37.0,18.0,-100.00,ENE,66,8.0,19.0,45,-99.99,,,-99.99,,2013-03-20 18:22:00,
2013-03-20 14:33:00,36.0,16.0,-100.00,ENE,69,11.0,19.0,42,-99.99,,,-99.99,,2013-03-20 18:33:00,
2013-03-20 14:43:00,36.0,16.0,-100.00,East,79,11.0,19.0,41,-99.99,,,-99.99,,2013-03-20 18:43:00,
2013-03-20 14:52:00,36.0,16.0,-100.00,ENE,77,11.0,19.0,42,-99.99,,,-99.99,,2013-03-20 18:52:00,
2013-03-20 15:02:00,37.0,14.0,-100.00,ENE,73,11.0,19.0,38,0.00,,,-99.99,,2013-03-20 19:02:00,
2013-03-20 15:12:00,37.0,14.0,-100.00,NE,55,10.0,19.0,38,31.18,,,-99.99,,2013-03-20 19:12:00,
2013-03-20 15:22:00,37.0,14.0,-100.00,ENE,77,12.0,19.0,36,31.18,,,-99.99,,2013-03-20 19:22:00,
2013-03-20 15:32:00,38.0,19.0,-100.00,ESE,103,8.0,19.0,46,0.00,,,-99.99,,2013-03-20 19:32:00,
2013-03-20 15:42:00,36.0,18.0,-100.00,East,88,9.0,19.0,45,0.00,,,-99.99,,2013-03-20 19:42:00,
2013-03-20 15:52:00,37.0,16.0,-100.00,NE,43,9.0,19.0,41,-99.99,,,-99.99,,2013-03-20 19:52:00,
2013-03-20 16:02:00,37.0,16.0,-100.00,ENE,70,9.0,19.0,41,-99.99,,,-99.99,,2013-03-20 20:02:00,
2013-03-20 16:13:00,37.0,16.0,-100.00,ENE,64,11.0,19.0,42,-99.99,,,-99.99,,2013-03-20 20:13:00,
2013-03-20 16:22:00,38.0,19.0,-100.00,East,96,11.0,19.0,46,-99.99,,,-99.99,,2013-03-20 20:22:00,
2013-03-20 16:32:00,37.0,18.0,-100.00,ENE,63,8.0,19.0,44,-99.99,,,-99.99,,2013-03-20 20:32:00,
2013-03-20 16:42:00,36.0,18.0,-100.00,ENE,67,9.0,19.0,44,-99.99,,,-99.99,,2013-03-20 20:42:00,
2013-03-20 16:52:00,37.0,18.0,-100.00,East,79,11.0,19.0,42,-99.99,,,-99.99,,2013-03-20 20:52:00,
2013-03-20 17:02:00,38.0,19.0,-100.00,NE,39,10.0,19.0,46,-99.99,,,-99.99,,2013-03-20 21:02:00,
2013-03-20 17:12:00,36.0,18.0,-100.00,ESE,108,8.0,19.0,45,-99.99,,,-99.99,,2013-03-20 21:12:00,
2013-03-20 17:22:00,37.0,21.0,-100.00,NE,56,7.0,19.0,49,-99.99,,,-99.99,,2013-03-20 21:22:00,
2013-03-20 17:33:00,37.0,19.0,-100.00,East,96,7.0,19.0,49,-99.99,,,-99.99,,2013-03-20 21:33:00,
2013-03-20 17:42:00,37.0,21.0,-100.00,ENE,60,9.0,19.0,49,-99.99,,,-99.99,,2013-03-20 21:42:00,
2013-03-20 17:52:00,36.0,19.0,-100.00,ENE,67,9.0,19.0,47,-99.99,,,-99.99,,2013-03-20 21:52:00,
2013-03-20 18:03:00,36.0,19.0,-100.00,East,81,12.0,19.0,49,-99.99,,,-99.99,,2013-03-20 22:03:00,
2013-03-20 18:13:00,34.0,16.0,-100.00,NE,43,9.0,19.0,45,0.00,,,-99.99,,2013-03-20 22:13:00,
2013-03-20 18:23:00,34.0,16.0,-100.00,ENE,62,7.0,19.0,45,-99.99,,,-99.99,,2013-03-20 22:23:00,
2013-03-20 18:33:00,36.0,19.0,-100.00,SSE,151,6.0,19.0,47,-99.99,,,-99.99,,2013-03-20 22:33:00,
2013-03-20 18:42:00,34.0,14.0,-100.00,ENE,60,5.0,19.0,42,-99.99,,,-99.99,,2013-03-20 22:42:00,
2013-03-20 18:52:00,34.0,14.0,-100.00,ESE,111,6.0,19.0,42,-99.99,,,-99.99,,2013-03-20 22:52:00,
2013-03-20 19:03:00,33.0,16.0,-100.00,SSE,153,5.0,19.0,45,-99.99,,,-99.99,,2013-03-20 23:03:00,
2013-03-20 19:12:00,35.0,19.0,-100.00,ESE,120,4.0,19.0,49,-99.99,,,-99.99,,2013-03-20 23:12:00,
2013-03-20 19:22:00,35.0,19.0,-100.00,East,94,5.0,19.0,50,-99.99,,,-99.99,,2013-03-20 23:22:00,
2013-03-20 19:32:00,35.0,21.0,-100.00,North,11,4.0,19.0,53,-99.99,,,-99.99,,2013-03-20 23:32:00,
2013-03-20 19:42:00,32.0,16.0,-100.00,NE,42,6.0,19.0,50,-99.99,,,-99.99,,2013-03-20 23:42:00,
2013-03-20 19:52:00,32.0,18.0,-100.00,NE,50,6.0,19.0,53,-99.99,,,-99.99,,2013-03-20 23:52:00,
2013-03-20 20:03:00,34.0,19.0,-100.00,NNE,19,5.0,19.0,55,-99.99,,,-99.99,,2013-03-21 00:03:00,
2013-03-20 20:13:00,31.0,18.0,-100.00,SE,134,3.0,19.0,54,-99.99,,,-99.99,,2013-03-21 00:13:00,
2013-03-20 20:23:00,32.0,21.0,-100.00,East,98,6.0,19.0,62,-99.99,,,-99.99,,2013-03-21 00:23:00,
2013-03-20 20:33:00,31.0,25.0,-100.00,East,83,6.0,19.0,75,-99.99,,,-99.99,,2013-03-21 00:33:00,
2013-03-20 20:42:00,28.0,23.0,-100.00,SE,138,4.0,19.0,76,-99.99,,,-99.99,,2013-03-21 00:42:00,
2013-03-20 20:52:00,30.0,25.0,-100.00,East,100,2.0,19.0,78,-99.99,,,-99.99,,2013-03-21 00:52:00,
2013-03-20 21:02:00,30.0,25.0,-100.00,ENE,63,3.0,19.0,78,-99.99,,,-99.99,,2013-03-21 01:02:00,
2013-03-20 21:12:00,31.0,27.0,-100.00,NE,52,3.0,19.0,78,-99.99,,,-99.99,,2013-03-21 01:12:00,
2013-03-20 21:22:00,28.0,23.0,-100.00,ENE,59,2.0,19.0,77,-99.99,,,-99.99,,2013-03-21 01:22:00,
2013-03-20 21:33:00,30.0,25.0,-100.00,ENE,72,2.0,19.0,77,0.00,,,-99.99,,2013-03-21 01:33:00,
2013-03-20 21:42:00,30.0,25.0,-100.00,East,91,1.0,19.0,78,-99.99,,,-99.99,,2013-03-21 01:42:00,
2013-03-20 21:52:00,28.0,23.0,-100.00,East,81,3.0,19.0,77,-99.99,,,-99.99,,2013-03-21 01:52:00,
2013-03-20 22:02:00,30.0,25.0,-100.00,ESE,121,3.0,19.0,77,-99.99,,,-99.99,,2013-03-21 02:02:00,
2013-03-20 22:13:00,30.0,25.0,-100.00,ENE,64,2.0,19.0,78,-99.99,,,-99.99,,2013-03-21 02:13:00,
2013-03-20 22:22:00,30.0,25.0,-100.00,ENE,72,2.0,19.0,77,-99.99,,,-99.99,,2013-03-21 02:22:00,
2013-03-20 22:33:00,29.0,25.0,-100.00,ESE,117,2.0,19.0,77,-99.99,,,-99.99,,2013-03-21 02:33:00,
2013-03-20 22:42:00,29.0,25.0,-100.00,ESE,117,2.0,19.0,77,-99.99,,,-99.99,,2013-03-21 02:42:00,
2013-03-20 22:52:00,29.0,25.0,-100.00,ESE,117,2.0,19.0,77,-99.99,,,-99.99,,2013-03-21 02:52:00,
2013-03-20 23:02:00,27.0,21.0,-100.00,SSE,148,1.0,19.0,76,-99.99,,,-99.99,,2013-03-21 03:02:00,
2013-03-20 23:12:00,27.0,21.0,-100.00,ENE,74,2.0,19.0,76,-99.99,,,-99.99,,2013-03-21 03:12:00,
2013-03-20 23:22:00,29.0,23.0,-100.00,SE,144,4.0,19.0,76,-99.99,,,-99.99,,2013-03-21 03:22:00,
2013-03-20 23:33:00,29.0,23.0,-100.00,SE,128,4.0,19.0,77,-99.99,,,-99.99,,2013-03-21 03:33:00,
2013-03-20 23:43:00,28.0,23.0,-100.00,NE,49,6.0,19.0,75,-99.99,,,-99.99,,2013-03-21 03:43:00,
2013-03-20 23:53:00,25.0,19.0,-100.00,NNE,28,4.0,19.0,75,-99.99,,,-99.99,,2013-03-21 03:53:00,